Time;durP1;ratioP1;P1;durP2;ratioP2;P2;SDS_P1;SDS_P2;PMS_P1;PMS_P2;Temp;Humidity;BMP_temperature;BMP_pressure;BME280_temperature;BME280_humidity;BME280_pressure;Samples;Min_cycle;Max_cycle;Signal;HPM_P1;HPM_P2
2023/09/21 00:00:20;;;;;;;0.00;0.00;;;18.10;99.90;;;;;;4951285;28;20109;-81
2023/09/21 00:02:50;;;;;;;;;;;18.10;99.90;;;;;;4952903;28;20031;-82
2023/09/21 00:05:21;;;;;;;0.00;0.00;;;18.00;99.90;;;;;;4948203;28;19918;-82
2023/09/21 00:07:47;;;;;;;0.00;0.00;;;18.10;99.90;;;;;;4949665;29;20571;-83
2023/09/21 00:10:13;;;;;;;0.00;0.00;;;18.00;99.90;;;;;;4947484;28;20141;-81
2023/09/21 00:12:41;;;;;;;0.00;0.00;;;18.10;99.90;;;;;;4950523;29;20023;-82
2023/09/21 00:15:21;;;;;;;0.00;0.00;;;18.10;99.90;;;;;;4948955;28;20515;-81
2023/09/21 00:17:50;;;;;;;0.00;0.00;;;18.10;99.90;;;;;;4949268;29;20123;-81
2023/09/21 00:20:23;;;;;;;0.00;0.00;;;18.10;99.90;;;;;;4946754;28;20052;-80
2023/09/21 00:22:51;;;;;;;0.00;0.00;;;18.10;99.90;;;;;;4948391;29;20649;-81
2023/09/21 00:25:17;;;;;;;0.00;0.00;;;18.10;99.90;;;;;;4948573;29;20071;-79
2023/09/21 00:27:44;;;;;;;0.00;0.00;;;18.00;99.90;;;;;;4956423;28;20042;-79
2023/09/21 00:30:10;;;;;;;0.00;0.00;;;18.00;99.90;;;;;;4949582;29;20039;-80
2023/09/21 00:32:40;;;;;;;0.00;0.00;;;18.00;99.90;;;;;;4955840;28;20038;-79
2023/09/21 00:35:10;;;;;;;0.00;0.00;;;17.90;99.90;;;;;;4955914;28;20620;-80
2023/09/21 00:37:39;;;;;;;0.00;0.00;;;17.90;99.90;;;;;;4964810;28;20119;-80
2023/09/21 00:40:17;;;;;;;0.00;0.00;;;17.90;99.90;;;;;;4957051;28;20038;-81
2023/09/21 00:42:47;;;;;;;0.00;0.00;;;17.90;99.90;;;;;;4963929;28;20039;-80
2023/09/21 00:45:18;;;;;;;0.00;0.00;;;17.80;99.90;;;;;;4947474;28;20027;-80
2023/09/21 00:47:50;;;;;;;0.00;0.00;;;17.90;99.90;;;;;;4948670;28;20035;-80
2023/09/21 00:50:19;;;;;;;0.00;0.00;;;17.90;99.90;;;;;;4947832;28;20031;-79
2023/09/21 00:52:46;;;;;;;0.00;0.00;;;17.90;99.90;;;;;;4942665;28;20042;-80
2023/09/21 00:55:24;;;;;;;0.00;0.00;;;17.90;99.90;;;;;;4945918;29;20042;-80
2023/09/21 00:57:59;;;;;;;0.08;0.08;;;17.90;99.90;;;;;;4950720;28;20043;-80
2023/09/21 01:00:26;;;;;;;0.00;0.00;;;17.90;99.90;;;;;;4943445;28;20042;-80
2023/09/21 01:02:59;;;;;;;0.00;0.00;;;17.90;99.90;;;;;;4952858;28;20047;-80
2023/09/21 01:05:24;;;;;;;0.00;0.00;;;18.00;99.90;;;;;;4946597;29;20196;-80
2023/09/21 01:07:50;;;;;;;0.00;0.00;;;18.00;99.90;;;;;;4950209;28;20090;-81
2023/09/21 01:10:21;;;;;;;0.00;0.00;;;17.90;99.90;;;;;;4949362;28;20045;-81
2023/09/21 01:12:49;;;;;;;0.00;0.00;;;17.90;99.90;;;;;;4942376;29;20110;-81
2023/09/21 01:15:16;;;;;;;0.00;0.00;;;17.90;99.90;;;;;;4950165;28;20062;-81
2023/09/21 01:17:42;;;;;;;0.00;0.00;;;17.90;99.90;;;;;;4942401;28;20077;-81
2023/09/21 01:20:15;;;;;;;0.00;0.00;;;17.80;99.90;;;;;;4942275;28;20468;-81
2023/09/21 01:22:52;;;;;;;0.00;0.00;;;17.80;99.90;;;;;;4943905;29;20267;-81
2023/09/21 01:25:18;;;;;;;0.00;0.00;;;17.80;99.90;;;;;;4944697;29;20039;-81
2023/09/21 01:27:43;;;;;;;0.00;0.00;;;17.80;99.90;;;;;;4948924;28;20598;-81
2023/09/21 01:30:12;;;;;;;0.00;0.00;;;17.80;99.90;;;;;;4954162;28;20115;-81
2023/09/21 01:32:39;;;;;;;0.00;0.00;;;17.70;99.90;;;;;;4945016;28;20042;-81
2023/09/21 01:35:07;;;;;;;0.00;0.00;;;17.70;99.90;;;;;;4943672;28;20039;-81
2023/09/21 01:37:32;;;;;;;0.00;0.00;;;17.70;99.90;;;;;;4963770;28;20122;-80
2023/09/21 01:39:58;;;;;;;0.00;0.00;;;17.70;99.90;;;;;;4945677;28;20123;-82
2023/09/21 01:42:25;;;;;;;0.00;0.00;;;17.70;99.90;;;;;;4945265;29;20024;-81
2023/09/21 01:44:51;;;;;;;0.00;0.00;;;17.80;99.90;;;;;;4946234;28;20035;-81
2023/09/21 01:47:18;;;;;;;0.00;0.00;;;17.80;99.90;;;;;;4948321;28;20031;-82
2023/09/21 01:49:44;;;;;;;0.00;0.00;;;17.80;99.90;;;;;;4958605;28;20146;-82
2023/09/21 01:52:10;;;;;;;0.00;0.00;;;17.90;99.90;;;;;;4943264;28;20071;-82
2023/09/21 01:54:36;;;;;;;0.00;0.00;;;17.80;99.90;;;;;;4948246;29;20035;-81
2023/09/21 01:57:07;;;;;;;0.00;0.00;;;17.90;99.90;;;;;;4942480;29;20027;-80
2023/09/21 01:59:33;;;;;;;0.00;0.00;;;17.90;99.90;;;;;;4947761;29;20039;-80
2023/09/21 02:01:59;;;;;;;0.00;0.00;;;18.00;99.90;;;;;;4944316;28;20027;-80
2023/09/21 02:04:25;;;;;;;0.00;0.00;;;17.90;99.90;;;;;;4945058;29;20031;-79
2023/09/21 02:06:50;;;;;;;0.00;0.00;;;17.90;99.90;;;;;;4947803;29;20035;-81
2023/09/21 02:09:16;;;;;;;0.00;0.00;;;18.00;99.90;;;;;;4962459;28;20031;-81
2023/09/21 02:11:44;;;;;;;0.00;0.00;;;18.00;99.90;;;;;;4955014;28;20150;-82
2023/09/21 02:14:11;;;;;;;0.10;0.10;;;18.00;99.90;;;;;;4946536;28;20038;-81
2023/09/21 02:16:38;;;;;;;0.00;0.00;;;18.00;99.90;;;;;;4948290;29;20062;-81
2023/09/21 02:19:03;;;;;;;0.00;0.00;;;18.00;99.90;;;;;;4940015;28;20058;-82
2023/09/21 02:21:29;;;;;;;0.00;0.00;;;18.00;99.90;;;;;;4947421;28;20070;-81
2023/09/21 02:23:55;;;;;;;0.00;0.00;;;18.00;99.90;;;;;;4942434;28;20027;-82
2023/09/21 02:26:21;;;;;;;0.00;0.00;;;18.10;99.90;;;;;;4945223;28;20053;-82
2023/09/21 02:28:48;;;;;;;0.00;0.00;;;18.00;99.90;;;;;;4947587;28;20087;-81
2023/09/21 02:31:14;;;;;;;0.00;0.00;;;18.00;99.90;;;;;;4958487;28;20533;-81
2023/09/21 02:33:42;;;;;;;0.00;0.00;;;18.10;99.90;;;;;;4945639;28;20093;-81
2023/09/21 02:36:19;;;;;;;0.00;0.00;;;18.10;99.90;;;;;;4945628;28;20041;-81
2023/09/21 02:38:45;;;;;;;0.00;0.00;;;18.10;99.90;;;;;;4956957;28;20042;-81
2023/09/21 02:41:11;;;;;;;0.00;0.00;;;18.10;99.90;;;;;;4947532;28;20027;-81
2023/09/21 02:43:39;;;;;;;0.00;0.00;;;18.10;99.90;;;;;;4947053;29;20041;-81
2023/09/21 02:46:05;;;;;;;0.00;0.00;;;18.10;99.90;;;;;;4943880;28;20027;-81
2023/09/21 02:48:30;;;;;;;0.00;0.00;;;18.10;99.90;;;;;;4944522;28;20822;-81
2023/09/21 02:50:58;;;;;;;0.00;0.00;;;18.10;99.90;;;;;;4946649;28;20031;-81
2023/09/21 02:53:23;;;;;;;0.00;0.00;;;18.10;99.90;;;;;;4941811;28;20060;-80
2023/09/21 02:55:52;;;;;;;0.00;0.00;;;18.10;99.90;;;;;;4946460;28;20031;-81
2023/09/21 02:58:19;;;;;;;0.00;0.00;;;18.10;99.90;;;;;;4951874;28;20067;-81
2023/09/21 03:00:46;;;;;;;0.00;0.00;;;18.10;99.90;;;;;;4947015;28;20032;-81
2023/09/21 03:03:16;;;;;;;0.00;0.00;;;18.10;99.90;;;;;;4947522;28;20039;-82
2023/09/21 03:05:47;;;;;;;0.00;0.00;;;18.10;99.90;;;;;;4941463;28;20043;-81
2023/09/21 03:08:15;;;;;;;0.00;0.00;;;18.10;99.90;;;;;;4962577;28;20099;-81
2023/09/21 03:10:47;;;;;;;0.00;0.00;;;18.10;99.90;;;;;;4950050;28;20122;-80
2023/09/21 03:13:17;;;;;;;0.00;0.00;;;18.10;99.90;;;;;;4939697;29;20111;-81
2023/09/21 03:15:47;;;;;;;0.00;0.00;;;18.10;99.90;;;;;;4942579;29;20142;-81
2023/09/21 03:18:14;;;;;;;0.00;0.00;;;18.10;99.90;;;;;;4939913;29;20579;-79
2023/09/21 03:20:40;;;;;;;0.00;0.00;;;18.10;99.90;;;;;;4934490;28;20055;-79
2023/09/21 03:23:10;;;;;;;0.00;0.00;;;18.00;99.90;;;;;;4944563;28;20054;-80
2023/09/21 03:25:40;;;;;;;0.00;0.00;;;18.00;99.90;;;;;;4937611;29;20027;-80
2023/09/21 03:28:13;;;;;;;0.00;0.00;;;18.00;99.90;;;;;;4940769;28;20038;-80
2023/09/21 03:30:43;;;;;;;0.47;0.47;;;18.00;99.90;;;;;;4936487;29;20027;-80
2023/09/21 03:33:09;;;;;;;0.00;0.00;;;18.00;99.90;;;;;;4940601;29;20035;-82
2023/09/21 03:35:37;;;;;;;0.00;0.00;;;18.00;99.90;;;;;;4955351;28;20020;-81
2023/09/21 03:38:08;;;;;;;0.00;0.00;;;17.90;99.90;;;;;;4936872;28;20051;-81
2023/09/21 03:40:33;;;;;;;0.00;0.00;;;17.90;99.90;;;;;;4944487;28;20028;-81
2023/09/21 03:42:59;;;;;;;0.00;0.00;;;17.90;99.90;;;;;;4957261;28;20035;-82
2023/09/21 03:45:25;;;;;;;0.00;0.00;;;17.80;99.90;;;;;;4948287;28;20494;-82
2023/09/21 03:47:52;;;;;;;0.00;0.00;;;17.90;99.90;;;;;;4954394;28;20950;-82
2023/09/21 03:50:18;;;;;;;0.00;0.00;;;17.80;99.90;;;;;;4942735;29;20035;-81
2023/09/21 03:52:44;;;;;;;0.00;0.00;;;17.80;99.90;;;;;;4949644;28;20039;-81
2023/09/21 03:55:15;;;;;;;0.00;0.00;;;17.70;99.90;;;;;;4946406;28;20825;-81
2023/09/21 03:57:41;;;;;;;0.00;0.00;;;17.80;99.90;;;;;;4961973;28;20043;-82
2023/09/21 04:00:17;;;;;;;0.00;0.00;;;17.70;99.90;;;;;;4950027;29;20444;-81
2023/09/21 04:02:45;;;;;;;0.00;0.00;;;17.80;99.90;;;;;;4959646;28;20078;-82
2023/09/21 04:05:12;;;;;;;0.00;0.00;;;17.80;99.90;;;;;;4943580;28;20027;-81
2023/09/21 04:07:38;;;;;;;0.00;0.00;;;17.80;99.90;;;;;;4944875;28;20069;-82
2023/09/21 04:10:04;;;;;;;0.10;0.10;;;17.80;99.90;;;;;;4951534;28;20063;-82
2023/09/21 04:12:31;;;;;;;0.00;0.00;;;17.80;99.90;;;;;;4941704;29;20791;-81
2023/09/21 04:14:56;;;;;;;;;;;17.90;99.90;;;;;;4944467;29;20574;-81
2023/09/21 04:17:22;;;;;;;0.00;0.00;;;17.90;99.90;;;;;;4949327;28;19937;-83
2023/09/21 04:19:51;;;;;;;0.00;0.00;;;18.00;99.90;;;;;;4940679;28;20032;-81
2023/09/21 04:22:16;;;;;;;0.00;0.00;;;18.00;99.90;;;;;;4949060;29;20570;-80
2023/09/21 04:24:42;;;;;;;0.00;0.00;;;18.00;99.90;;;;;;4939354;29;20035;-80
2023/09/21 04:27:08;;;;;;;0.00;0.00;;;18.00;99.90;;;;;;4946454;29;20031;-81
2023/09/21 04:29:33;;;;;;;0.00;0.00;;;18.00;99.90;;;;;;4948004;28;20039;-80
2023/09/21 04:31:59;;;;;;;0.00;0.00;;;18.10;99.90;;;;;;4938841;29;20066;-80
2023/09/21 04:34:25;;;;;;;0.00;0.00;;;18.00;99.90;;;;;;4938322;28;20027;-80
2023/09/21 04:36:51;;;;;;;0.00;0.00;;;18.00;99.90;;;;;;4940684;28;20031;-79
2023/09/21 04:39:17;;;;;;;0.00;0.00;;;18.00;99.90;;;;;;4935720;29;20596;-80
2023/09/21 04:41:44;;;;;;;0.00;0.00;;;18.00;99.90;;;;;;4949178;28;20050;-80
2023/09/21 04:44:10;;;;;;;0.00;0.00;;;17.90;99.90;;;;;;4936544;29;20094;-79
2023/09/21 04:46:36;;;;;;;0.00;0.00;;;17.70;99.90;;;;;;4939595;28;20147;-79
2023/09/21 04:49:03;;;;;;;0.00;0.00;;;17.70;99.90;;;;;;4937938;29;20094;-79
2023/09/21 04:51:29;;;;;;;0.00;0.00;;;17.60;99.90;;;;;;4937789;29;20075;-79
2023/09/21 04:53:55;;;;;;;0.00;0.00;;;17.60;99.90;;;;;;4941827;28;20106;-80
2023/09/21 04:56:20;;;;;;;0.00;0.00;;;17.50;99.90;;;;;;4965603;28;20467;-80
2023/09/21 04:58:46;;;;;;;0.00;0.00;;;17.50;99.90;;;;;;4939474;29;20039;-78
2023/09/21 05:01:12;;;;;;;0.00;0.00;;;17.50;99.90;;;;;;4957849;28;20027;-80
2023/09/21 05:03:38;;;;;;;0.00;0.00;;;17.60;99.90;;;;;;4944967;29;20785;-78
2023/09/21 05:06:06;;;;;;;0.00;0.00;;;17.70;99.90;;;;;;4962577;28;20537;-79
2023/09/21 05:08:36;;;;;;;0.00;0.00;;;17.80;99.90;;;;;;4947800;29;20407;-79
2023/09/21 05:11:03;;;;;;;0.00;0.00;;;17.80;99.90;;;;;;4964938;28;20118;-78
2023/09/21 05:13:29;;;;;;;0.00;0.00;;;17.90;99.90;;;;;;4943545;28;20027;-79
2023/09/21 05:15:55;;;;;;;0.00;0.00;;;17.80;99.90;;;;;;4943910;29;20035;-78
2023/09/21 05:18:20;;;;;;;0.00;0.00;;;17.80;99.90;;;;;;4951195;29;20027;-78
2023/09/21 05:20:49;;;;;;;0.00;0.00;;;17.80;99.90;;;;;;4945319;28;20055;-84
2023/09/21 05:23:14;;;;;;;0.00;0.00;;;17.70;99.90;;;;;;4945472;28;20654;-83
2023/09/21 05:25:40;;;;;;;0.03;0.03;;;17.70;99.90;;;;;;4946216;28;20038;-84
2023/09/21 05:28:06;;;;;;;0.00;0.00;;;17.70;99.90;;;;;;4945174;28;20023;-82
2023/09/21 05:30:31;;;;;;;0.00;0.00;;;17.70;99.90;;;;;;4949057;29;20837;-83
2023/09/21 05:32:57;;;;;;;0.00;0.00;;;17.70;99.90;;;;;;4947585;28;20376;-83
2023/09/21 05:35:23;;;;;;;0.00;0.00;;;17.70;99.90;;;;;;4947521;28;20031;-85
2023/09/21 05:37:52;;;;;;;0.00;0.00;;;17.70;99.90;;;;;;4948873;28;20293;-87
2023/09/21 05:40:17;;;;;;;0.00;0.00;;;17.70;99.90;;;;;;4949346;28;20110;-90
2023/09/21 05:42:45;;;;;;;0.00;0.00;;;17.60;99.90;;;;;;4949272;28;20180;-84
2023/09/21 05:45:11;;;;;;;0.00;0.00;;;17.60;99.90;;;;;;4964119;28;20818;-84
2023/09/21 05:47:37;;;;;;;0.00;0.00;;;17.60;99.90;;;;;;4945454;28;20102;-82
2023/09/21 05:50:05;;;;;;;0.00;0.00;;;17.50;99.90;;;;;;4960415;28;20039;-81
2023/09/21 05:52:33;;;;;;;0.00;0.00;;;17.40;99.90;;;;;;4965338;28;20827;-83
2023/09/21 05:55:00;;;;;;;0.00;0.00;;;17.50;99.90;;;;;;4944842;28;20035;-81
2023/09/21 05:57:27;;;;;;;;;;;17.30;99.90;;;;;;4950528;28;20082;-85
2023/09/21 05:59:53;;;;;;;;;;;17.50;99.90;;;;;;4949683;28;19950;-82
2023/09/21 06:02:19;;;;;;;0.00;0.00;;;17.50;99.90;;;;;;4946081;28;20004;-82
2023/09/21 06:04:46;;;;;;;0.00;0.00;;;17.60;99.90;;;;;;4948144;28;20058;-82
2023/09/21 06:07:12;;;;;;;0.00;0.00;;;17.60;99.90;;;;;;4945193;28;20043;-78
2023/09/21 06:09:39;;;;;;;0.00;0.00;;;17.80;99.90;;;;;;4946519;29;20035;-78
2023/09/21 06:12:10;;;;;;;0.00;0.00;;;17.90;99.90;;;;;;4947616;28;20110;-77
2023/09/21 06:14:38;;;;;;;0.00;0.00;;;18.10;99.90;;;;;;4964870;28;20058;-77
2023/09/21 06:17:05;;;;;;;0.00;0.00;;;18.00;99.90;;;;;;4939403;29;20138;-78
2023/09/21 06:19:32;;;;;;;0.00;0.00;;;18.20;99.70;;;;;;4944520;29;20047;-78
2023/09/21 06:21:58;;;;;;;;;;;18.30;99.30;;;;;;4948428;29;20075;-81
2023/09/21 06:24:27;;;;;;;0.00;0.00;;;18.20;99.30;;;;;;4947286;28;19925;-82
2023/09/21 06:26:53;;;;;;;0.15;0.15;;;18.20;99.10;;;;;;4950776;28;20035;-80
2023/09/21 06:29:21;;;;;;;0.00;0.00;;;18.30;99.00;;;;;;4947978;28;20034;-81
2023/09/21 06:31:48;;;;;;;0.00;0.00;;;18.30;99.00;;;;;;4948699;29;20066;-81
2023/09/21 06:34:18;;;;;;;0.00;0.00;;;18.30;99.10;;;;;;4948415;28;20123;-80
2023/09/21 06:36:44;;;;;;;0.00;0.00;;;18.30;99.00;;;;;;4947473;29;20037;-81
2023/09/21 06:39:11;;;;;;;0.00;0.00;;;18.30;98.90;;;;;;4945358;29;20119;-81
2023/09/21 06:41:37;;;;;;;0.00;0.00;;;18.40;98.80;;;;;;4947494;28;20046;-81
2023/09/21 06:44:03;;;;;;;0.00;0.00;;;18.50;98.70;;;;;;4961641;28;20542;-81
2023/09/21 06:46:29;;;;;;;0.00;0.00;;;18.50;98.60;;;;;;4946787;29;20035;-81
2023/09/21 06:48:55;;;;;;;0.00;0.00;;;18.60;98.20;;;;;;4946200;29;20388;-81
2023/09/21 06:51:21;;;;;;;0.00;0.00;;;19.00;97.70;;;;;;4964771;28;20035;-81
2023/09/21 06:53:48;;;;;;;0.00;0.00;;;19.70;97.10;;;;;;4948230;28;20039;-82
2023/09/21 06:56:14;;;;;;;0.00;0.00;;;20.20;95.40;;;;;;4944194;29;20278;-82
2023/09/21 06:58:40;;;;;;;0.00;0.00;;;20.20;95.10;;;;;;4940204;29;20038;-82
2023/09/21 07:01:06;;;;;;;0.00;0.00;;;21.20;93.80;;;;;;4943924;29;20031;-81
2023/09/21 07:03:36;;;;;;;0.00;0.00;;;21.50;92.80;;;;;;4939979;29;20036;-82
2023/09/21 07:06:02;;;;;;;0.00;0.00;;;23.80;90.20;;;;;;4940392;28;20027;-82
2023/09/21 07:08:28;;;;;;;0.00;0.00;;;24.00;84.40;;;;;;4952604;28;20610;-82
2023/09/21 07:10:53;;;;;;;0.00;0.00;;;24.10;83.10;;;;;;4949930;29;20038;-82
2023/09/21 07:13:19;;;;;;;0.00;0.00;;;22.40;86.60;;;;;;4952732;28;20042;-82
2023/09/21 07:15:46;;;;;;;0.00;0.00;;;24.40;82.70;;;;;;4960815;28;20038;-82
2023/09/21 07:18:12;;;;;;;0.00;0.00;;;22.60;84.60;;;;;;4945754;29;20031;-82
2023/09/21 07:20:38;;;;;;;0.00;0.00;;;22.40;86.20;;;;;;4948117;28;20079;-82
2023/09/21 07:23:04;;;;;;;0.00;0.00;;;21.80;90.00;;;;;;4946805;28;20051;-82
2023/09/21 07:25:29;;;;;;;0.00;0.00;;;21.60;90.00;;;;;;4954227;29;20031;-81
2023/09/21 07:27:57;;;;;;;0.00;0.00;;;21.30;91.80;;;;;;4950618;28;20059;-82
2023/09/21 07:30:25;;;;;;;0.00;0.00;;;20.90;93.30;;;;;;4951530;29;20066;-82
2023/09/21 07:32:54;;;;;;;0.00;0.00;;;20.70;94.30;;;;;;4951193;29;20043;-82
2023/09/21 07:35:21;;;;;;;0.00;0.00;;;20.50;93.30;;;;;;4957326;28;20026;-82
2023/09/21 07:37:49;;;;;;;2.63;1.77;;;20.30;93.80;;;;;;4950941;28;20094;-82
2023/09/21 07:40:16;;;;;;;0.00;0.00;;;20.10;94.40;;;;;;4952823;28;20019;-81
2023/09/21 07:42:48;;;;;;;0.00;0.00;;;20.00;94.10;;;;;;4953009;28;20031;-82
2023/09/21 07:45:14;;;;;;;0.00;0.00;;;20.10;93.80;;;;;;4948454;29;20023;-82
2023/09/21 07:47:39;;;;;;;0.00;0.00;;;20.20;94.10;;;;;;4945571;28;20035;-81
2023/09/21 07:50:06;;;;;;;0.00;0.00;;;20.20;93.80;;;;;;4946042;29;20155;-81
2023/09/21 07:52:35;;;;;;;0.10;0.10;;;20.00;94.20;;;;;;4948547;29;20031;-82
2023/09/21 07:55:02;;;;;;;0.00;0.00;;;20.00;94.90;;;;;;4943002;28;20118;-81
2023/09/21 07:57:40;;;;;;;0.10;0.10;;;19.80;96.20;;;;;;4943164;29;20035;-82
2023/09/21 08:00:09;;;;;;;0.00;0.00;;;19.70;97.30;;;;;;4940294;29;20582;-81
2023/09/21 08:02:35;;;;;;;0.00;0.00;;;19.60;98.00;;;;;;4950196;29;20023;-82
2023/09/21 08:05:02;;;;;;;0.00;0.00;;;19.80;97.70;;;;;;4947953;29;20032;-82
2023/09/21 08:07:28;;;;;;;0.00;0.00;;;19.60;97.80;;;;;;4943718;29;20880;-81
2023/09/21 08:09:55;;;;;;;0.00;0.00;;;19.60;98.20;;;;;;4940543;29;20031;-81
2023/09/21 08:12:22;;;;;;;0.00;0.00;;;19.60;98.70;;;;;;4943638;29;20023;-82
2023/09/21 08:14:48;;;;;;;;;;;19.50;99.50;;;;;;4949606;28;20039;-81
2023/09/21 08:17:14;;;;;;;0.00;0.00;;;19.60;99.50;;;;;;4951556;28;19918;-82
2023/09/21 08:19:40;;;;;;;0.00;0.00;;;19.50;99.70;;;;;;4950462;28;20024;-82
2023/09/21 08:22:06;;;;;;;0.00;0.00;;;19.60;99.40;;;;;;4948160;29;20051;-82
2023/09/21 08:24:35;;;;;;;0.00;0.00;;;19.60;99.90;;;;;;4951124;29;20059;-82
2023/09/21 08:27:04;;;;;;;0.00;0.00;;;19.50;99.90;;;;;;4948341;29;20027;-82
2023/09/21 08:29:30;;;;;;;0.35;0.35;;;19.70;99.90;;;;;;4946972;28;20410;-82
2023/09/21 08:31:57;;;;;;;0.00;0.00;;;20.00;99.60;;;;;;4948264;28;20039;-82
2023/09/21 08:34:24;;;;;;;0.00;0.00;;;20.30;98.80;;;;;;4946251;28;20046;-82
2023/09/21 08:36:49;;;;;;;0.00;0.00;;;20.60;98.30;;;;;;4947722;29;20046;-81
2023/09/21 08:39:15;;;;;;;0.00;0.00;;;20.70;97.90;;;;;;4949247;28;20039;-81
2023/09/21 08:41:50;;;;;;;0.00;0.00;;;20.80;97.30;;;;;;4944893;28;20051;-82
2023/09/21 08:44:17;;;;;;;0.00;0.00;;;20.80;97.20;;;;;;4946511;29;20074;-82
2023/09/21 08:46:47;;;;;;;0.00;0.00;;;20.70;97.20;;;;;;4947493;29;20027;-82
2023/09/21 08:49:17;;;;;;;0.00;0.00;;;20.50;97.40;;;;;;4961381;28;20028;-82
2023/09/21 08:51:44;;;;;;;0.00;0.00;;;20.90;96.70;;;;;;4950079;29;20023;-82
2023/09/21 08:54:16;;;;;;;0.00;0.00;;;21.20;96.20;;;;;;4966396;28;20034;-82
2023/09/21 08:56:43;;;;;;;0.00;0.00;;;22.10;94.40;;;;;;4944322;29;20063;-82
2023/09/21 08:59:09;;;;;;;0.00;0.00;;;21.80;94.80;;;;;;4950055;29;20028;-82
2023/09/21 09:01:36;;;;;;;0.00;0.00;;;21.90;95.60;;;;;;4959175;28;20035;-82
2023/09/21 09:04:02;;;;;;;0.00;0.00;;;21.90;95.40;;;;;;4939152;29;20024;-82
2023/09/21 09:06:29;;;;;;;0.00;0.00;;;22.40;94.60;;;;;;4952032;28;20028;-82
2023/09/21 09:08:55;;;;;;;0.00;0.00;;;22.40;94.20;;;;;;4951235;29;20106;-82
2023/09/21 09:11:42;;;;;;;0.00;0.00;;;22.10;94.30;;;;;;4951623;29;20102;-82
2023/09/21 09:14:14;;;;;;;0.20;0.20;;;23.00;94.00;;;;;;4938833;29;20027;-82
2023/09/21 09:16:39;;;;;;;0.00;0.00;;;22.20;93.70;;;;;;4941598;28;20032;-82
2023/09/21 09:19:05;;;;;;;0.00;0.00;;;23.90;92.40;;;;;;4940005;28;20086;-83
2023/09/21 09:21:31;;;;;;;0.60;0.60;;;22.80;93.30;;;;;;4943858;28;20055;-82
2023/09/21 09:23:57;;;;;;;0.00;0.00;;;22.20;93.50;;;;;;4950907;29;20450;-82
2023/09/21 09:26:23;;;;;;;0.00;0.00;;;22.00;93.60;;;;;;4946509;29;20031;-82
2023/09/21 09:28:49;;;;;;;0.00;0.00;;;21.80;94.30;;;;;;4946969;28;20043;-82
2023/09/21 09:31:17;;;;;;;0.00;0.00;;;21.90;94.90;;;;;;4950608;29;20051;-82
2023/09/21 09:33:46;;;;;;;0.10;0.10;;;21.70;94.60;;;;;;4946338;28;20031;-81
2023/09/21 09:36:13;;;;;;;0.00;0.00;;;21.50;95.00;;;;;;4965768;28;20110;-82
2023/09/21 09:38:39;;;;;;;0.15;0.15;;;21.30;95.10;;;;;;4949924;29;20082;-82
2023/09/21 09:41:04;;;;;;;0.00;0.00;;;20.90;95.60;;;;;;4963723;28;20031;-82
2023/09/21 09:43:32;;;;;;;0.00;0.00;;;21.00;95.70;;;;;;4946660;29;20027;-82
2023/09/21 09:46:04;;;;;;;0.88;0.35;;;20.80;96.10;;;;;;4941824;29;20032;-81
2023/09/21 09:48:32;;;;;;;0.00;0.00;;;20.40;96.60;;;;;;4948207;29;20038;-82
2023/09/21 09:51:05;;;;;;;0.55;0.55;;;20.50;97.10;;;;;;4950863;29;20023;-82
2023/09/21 09:53:34;;;;;;;0.00;0.00;;;20.70;96.00;;;;;;4945934;28;20063;-82
2023/09/21 09:56:08;;;;;;;0.00;0.00;;;20.80;96.20;;;;;;4940811;29;20027;-82
2023/09/21 09:58:41;;;;;;;0.00;0.00;;;20.50;96.20;;;;;;4947621;29;20031;-82
2023/09/21 10:01:12;;;;;;;0.00;0.00;;;20.40;96.60;;;;;;4954608;28;20082;-81
2023/09/21 10:03:43;;;;;;;0.00;0.00;;;20.40;96.50;;;;;;4968559;28;20466;-82
2023/09/21 10:06:12;;;;;;;0.00;0.00;;;20.40;97.00;;;;;;4948932;28;20031;-82
2023/09/21 10:08:39;;;;;;;0.00;0.00;;;20.60;97.60;;;;;;4941077;28;20038;-82
2023/09/21 10:11:09;;;;;;;0.00;0.00;;;20.50;97.10;;;;;;4936272;29;20042;-82
2023/09/21 10:13:47;;;;;;;0.00;0.00;;;20.30;97.10;;;;;;4940636;28;20154;-82
2023/09/21 10:16:13;;;;;;;0.00;0.00;;;20.20;97.80;;;;;;4945171;29;20475;-82
2023/09/21 10:18:40;;;;;;;0.00;0.00;;;20.00;97.60;;;;;;4942757;29;20077;-82
2023/09/21 10:21:24;;;;;;;;;;;20.10;97.90;;;;;;4943249;28;20819;-82
2023/09/21 10:24:12;;;;;;;0.00;0.00;;;20.20;97.90;;;;;;4941658;28;19950;-82
2023/09/21 10:26:38;;;;;;;0.00;0.00;;;19.80;99.10;;;;;;4942567;28;20566;-81
2023/09/21 10:29:07;;;;;;;;;;;20.10;98.20;;;;;;4943736;28;20447;-82
2023/09/21 10:31:37;;;;;;;0.00;0.00;;;20.00;96.60;;;;;;4949981;28;19953;-82
2023/09/21 10:34:02;;;;;;;0.00;0.00;;;20.10;96.50;;;;;;4948728;28;20090;-82
2023/09/21 10:36:29;;;;;;;0.00;0.00;;;20.00;96.50;;;;;;4948740;29;20555;-82
2023/09/21 10:39:06;;;;;;;;;;;20.20;96.70;;;;;;4950271;29;20027;-82
2023/09/21 10:41:39;;;;;;;0.00;0.00;;;20.00;97.00;;;;;;4949394;28;19911;-82
2023/09/21 10:44:09;;;;;;;0.00;0.00;;;19.90;95.80;;;;;;4958787;28;20075;-82
2023/09/21 10:46:37;;;;;;;0.00;0.00;;;19.40;97.40;;;;;;4948987;29;20059;-82
2023/09/21 10:49:05;;;;;;;2.42;1.05;;;19.40;96.80;;;;;;4949503;29;20127;-82
2023/09/21 10:51:32;;;;;;;0.00;0.00;;;19.30;97.60;;;;;;4946011;29;20031;-82
2023/09/21 10:53:59;;;;;;;;;;;18.90;99.90;;;;;;4944907;29;20031;-83
2023/09/21 10:56:26;;;;;;;0.00;0.00;;;18.80;99.90;;;;;;4942379;28;19923;-85
2023/09/21 10:58:52;;;;;;;16.17;4.57;;;18.60;99.90;;;;;;4947177;29;20054;-85
2023/09/21 11:01:19;;;;;;;0.00;0.00;;;18.30;99.90;;;;;;4963367;28;20112;-88
2023/09/21 11:03:48;;;;;;;0.00;0.00;;;17.50;99.90;;;;;;4947106;28;20047;-88
2023/09/21 11:06:17;;;;;;;0.00;0.00;;;16.70;99.90;;;;;;4937373;28;20110;-86
2023/09/21 11:08:50;;;;;;;0.00;0.00;;;16.30;99.90;;;;;;4962001;28;20046;-86
2023/09/21 11:11:16;;;;;;;0.00;0.00;;;16.00;99.90;;;;;;4936986;29;20036;-85
2023/09/21 11:13:42;;;;;;;;;;;16.00;99.90;;;;;;4941199;28;20136;-85
2023/09/21 11:16:14;;;;;;;0.40;0.40;;;15.70;99.90;;;;;;4943363;28;20004;-85
2023/09/21 11:18:40;;;;;;;0.00;0.00;;;15.70;99.90;;;;;;4947776;29;20036;-88
2023/09/21 11:21:08;;;;;;;0.00;0.00;;;15.90;99.90;;;;;;4939635;28;20885;-89
2023/09/21 11:23:35;;;;;;;0.00;0.00;;;15.80;99.90;;;;;;4948781;28;20035;-91
2023/09/21 11:26:01;;;;;;;0.00;0.00;;;16.00;99.90;;;;;;4950956;28;20110;-92
2023/09/21 11:28:27;;;;;;;0.00;0.00;;;15.80;99.90;;;;;;4953691;28;20067;-89
2023/09/21 11:30:56;;;;;;;0.10;0.10;;;15.70;99.90;;;;;;4942831;29;20058;-91
2023/09/21 11:33:22;;;;;;;1.55;1.20;;;15.90;99.90;;;;;;4949397;28;20051;-90
2023/09/21 11:35:47;;;;;;;0.00;0.00;;;15.80;99.90;;;;;;4946680;28;20031;-90
2023/09/21 11:38:15;;;;;;;0.00;0.00;;;15.80;99.90;;;;;;4968027;28;20035;-90
2023/09/21 11:40:40;;;;;;;0.00;0.00;;;15.90;99.90;;;;;;4955132;28;20027;-93
2023/09/21 11:43:16;;;;;;;0.00;0.00;;;15.90;99.90;;;;;;4951052;28;20023;-92
2023/09/21 11:45:49;;;;;;;0.10;0.10;;;16.00;99.90;;;;;;4946728;29;20607;-90
2023/09/21 11:48:15;;;;;;;0.00;0.00;;;16.00;99.90;;;;;;4957233;28;20506;-91
2023/09/21 11:50:44;;;;;;;0.00;0.00;;;16.00;99.90;;;;;;4944504;29;20034;-92
2023/09/21 11:53:10;;;;;;;0.10;0.10;;;15.90;99.90;;;;;;4973947;28;20031;-92
2023/09/21 11:55:40;;;;;;;0.10;0.10;;;15.90;99.90;;;;;;4958772;29;20050;-93
2023/09/21 11:58:16;;;;;;;0.00;0.00;;;16.00;99.90;;;;;;4954167;28;20039;-93
2023/09/21 12:00:44;;;;;;;0.00;0.00;;;16.10;99.90;;;;;;4950046;29;20039;-92
2023/09/21 12:03:14;;;;;;;0.00;0.00;;;16.20;99.90;;;;;;4963557;28;20689;-92
2023/09/21 12:05:43;;;;;;;0.00;0.00;;;16.50;99.90;;;;;;4969154;28;20055;-92
2023/09/21 12:08:11;;;;;;;0.00;0.00;;;16.50;99.90;;;;;;4953555;29;20030;-93
2023/09/21 12:10:37;;;;;;;0.00;0.00;;;16.40;99.90;;;;;;4948113;28;20079;-91
2023/09/21 12:13:03;;;;;;;0.00;0.00;;;16.80;99.90;;;;;;4950071;29;20570;-92
2023/09/21 12:15:29;;;;;;;0.00;0.00;;;16.60;99.90;;;;;;4955289;28;20043;-92
2023/09/21 12:17:55;;;;;;;0.00;0.00;;;17.00;99.90;;;;;;4956719;29;20518;-93
2023/09/21 12:20:21;;;;;;;0.00;0.00;;;17.30;99.90;;;;;;4947637;28;20087;-92
2023/09/21 12:22:47;;;;;;;0.00;0.00;;;17.00;99.90;;;;;;4960765;29;20035;-92
2023/09/21 12:25:16;;;;;;;0.00;0.00;;;17.40;99.90;;;;;;4956768;28;20038;-90
2023/09/21 12:27:42;;;;;;;0.00;0.00;;;17.40;99.90;;;;;;4958675;28;20773;-93
2023/09/21 12:30:12;;;;;;;0.00;0.00;;;17.40;99.90;;;;;;4961466;28;20042;-93
2023/09/21 12:32:39;;;;;;;0.10;0.10;;;17.90;99.90;;;;;;4960762;28;20027;-91
2023/09/21 12:35:07;;;;;;;;;;;17.80;99.90;;;;;;4960852;28;20106;-93
2023/09/21 12:37:33;;;;;;;0.00;0.00;;;17.40;99.90;;;;;;4973791;28;19914;-92
2023/09/21 12:39:59;;;;;;;0.00;0.00;;;17.60;99.90;;;;;;4961156;28;20376;-92
2023/09/21 12:42:25;;;;;;;0.00;0.00;;;17.60;99.90;;;;;;4961964;29;20027;-93
2023/09/21 12:44:51;;;;;;;0.00;0.00;;;17.30;99.90;;;;;;4962393;28;20125;-91
2023/09/21 12:47:16;;;;;;;0.00;0.00;;;17.20;99.90;;;;;;4961276;28;20035;-92
2023/09/21 12:49:42;;;;;;;0.00;0.00;;;17.30;99.90;;;;;;4963700;28;20063;-92
2023/09/21 12:52:07;;;;;;;0.10;0.10;;;17.30;99.90;;;;;;4959362;28;20035;-91